Prague, Czech Republic

11:59 PM CET on February 27, 2017 (GMT +0100)
Hostoun u Prahy | | Change Station

Elev 1165 ft 50.11 °N, 14.20 °E | Updated 11 minutes ago

Clear
Clear
41.4 °F
Feels Like 39 °F
N
4.0
Wind Variable Wind from South
Gusts 9.0 mph

Today
High -- | Low -- °F
--% Chance of Precip.
Yesterday
High -- | Low -- °F
Precip. -- in
Pressure 29.50 in
Visibility -9999.0 miles
Clouds
Windchill 39 °F
Dew Point 34 °F
Humidity 75%
Rainfall 0.00 in
Snow Depth Not available.
6:50 AM 5:41 PM
New Moon, 2% visible
METAR LKPR 272230Z 18011KT CAVOK 06/M00 Q0999 NOSIG
Pressure 29.50 in
Visibility -9999.0 miles
Clouds
Windchill 39 °F
Dew Point 34 °F
Humidity 75%
Rainfall 0.00 in
Snow Depth Not available.
6:50 AM 5:41 PM
New Moon, 2% visible
METAR LKPR 272230Z 18011KT CAVOK 06/M00 Q0999 NOSIG

Get Your Daily Forecast Email!

Thanks for signing up!

Be on the lookout for a verification email in your inbox.

You'll start receiving the daily forecast at 8 AM.

×

10-Day Weather Forecast

×

Almanac

Astronomy

Feb. 27, 2017 Rise Set
Actual Time
Civil Twilight
Nautical Twilight
Astronomical Twilight
Moon
Length of Visible Light
Length of Day
Tomorrow will be .
, % of the Moon is Illuminated

Today's Extremes

Country Highs Country Lows

Community

WunderPhotos

Upload Photos

1,962,540 photos uploaded!

WunderBlog® & News

Nearby

Air Quality

  Air Quality AQ Index Pollutant
Not available.

Snow Depth

Station Depth Elevation

Earthquake Activity

City Distance Mag. Time & Date
Minimum magnitude displayed is 2.5.

Coastal Water Temperatures

Place Temperature

Stations

Nearby Weather Stations

Station Location Temp. Windchill Dew Point Humidity Wind Precip. Elev Updated Type